createdAt,value
2019-04-05T00:00:39.721Z,67.37
2019-04-05T00:03:11.462Z,75.37
2019-04-05T00:05:42.811Z,65.17
2019-04-05T00:08:14.029Z,79.17
2019-04-05T00:10:45.985Z,76.70
2019-04-05T00:13:17.224Z,80.77
2019-04-05T00:15:52.593Z,81.30
2019-04-05T00:18:23.881Z,81.55
2019-04-05T00:20:55.227Z,68.43
2019-04-05T00:23:26.446Z,76.50
2019-04-05T00:25:58.083Z,74.10
2019-04-05T00:28:29.530Z,74.27
2019-04-05T00:31:00.910Z,90.87
2019-04-05T00:33:32.276Z,79.27
2019-04-05T00:36:03.575Z,85.07
2019-04-05T00:38:35.906Z,83.73
2019-04-05T00:41:07.269Z,87.03
2019-04-05T00:43:38.724Z,116.40
2019-04-05T00:46:10.202Z,140.23
2019-04-05T00:48:41.665Z,154.07
2019-04-05T00:51:13.044Z,131.73
2019-04-05T00:53:44.511Z,119.73
2019-04-05T00:56:15.919Z,107.63
2019-04-05T00:58:47.197Z,124.50
2019-04-05T01:01:18.634Z,104.73
2019-04-05T01:03:50.010Z,99.80
2019-04-05T01:06:21.360Z,105.40
2019-04-05T01:08:52.653Z,115.03
2019-04-05T01:11:24.109Z,114.17
2019-04-05T01:13:55.460Z,122.00
2019-04-05T01:16:26.734Z,108.87
2019-04-05T01:18:58.163Z,117.03
2019-04-05T01:21:31.015Z,117.63
2019-04-05T01:24:02.744Z,113.40
2019-04-05T01:26:34.178Z,123.07
2019-04-05T01:29:05.527Z,118.33
2019-04-05T01:31:36.947Z,99.47
2019-04-05T01:34:08.316Z,242.03
2019-04-05T01:36:39.695Z,162.27
2019-04-05T01:39:11.069Z,107.93
2019-04-05T01:41:42.493Z,105.97
2019-04-05T01:44:13.815Z,124.43
2019-04-05T01:46:45.276Z,123.73
2019-04-05T01:49:16.555Z,96.37
2019-04-05T01:51:47.915Z,95.20
2019-04-05T01:54:19.226Z,94.67
2019-04-05T01:56:50.432Z,106.57
2019-04-05T01:59:21.787Z,116.77
2019-04-05T02:01:53.159Z,107.77
2019-04-05T02:04:24.565Z,93.47
2019-04-05T02:06:56.000Z,94.13
2019-04-05T02:09:27.345Z,94.27
2019-04-05T02:11:58.647Z,89.17
2019-04-05T02:14:30.070Z,83.97
2019-04-05T02:17:01.371Z,86.97
2019-04-05T02:19:32.712Z,80.20
2019-04-05T02:22:04.011Z,90.47
2019-04-05T02:24:35.435Z,90.70
2019-04-05T02:27:06.809Z,93.03
2019-04-05T02:29:38.185Z,102.33
2019-04-05T02:32:10.633Z,107.17
2019-04-05T02:34:41.924Z,110.10
2019-04-05T02:37:13.277Z,119.07
2019-04-05T02:39:44.685Z,121.33
2019-04-05T02:42:16.107Z,105.90
2019-04-05T02:44:47.455Z,98.67
2019-04-05T02:47:18.878Z,107.57
2019-04-05T02:49:50.220Z,100.87
2019-04-05T02:52:21.670Z,105.47
2019-04-05T02:54:53.000Z,89.97
2019-04-05T02:57:24.349Z,95.47
2019-04-05T02:59:55.670Z,99.23
2019-04-05T03:02:26.971Z,93.50
2019-04-05T03:04:58.294Z,106.73
2019-04-05T03:07:29.656Z,93.43
2019-04-05T03:10:01.071Z,96.07
2019-04-05T03:12:32.486Z,100.97
2019-04-05T03:15:04.480Z,101.40
2019-04-05T03:17:35.813Z,106.57
2019-04-05T03:20:07.403Z,104.80
2019-04-05T03:22:38.864Z,98.83
2019-04-05T03:25:10.132Z,94.23
2019-04-05T03:27:41.537Z,87.23
2019-04-05T03:30:12.829Z,98.90
2019-04-05T03:32:44.179Z,93.17
2019-04-05T03:35:15.616Z,99.97
2019-04-05T03:37:47.112Z,89.30
2019-04-05T03:40:18.563Z,87.50
2019-04-05T03:42:49.989Z,92.70
2019-04-05T03:45:21.273Z,94.80
2019-04-05T03:47:52.594Z,96.67
2019-04-05T03:50:23.885Z,89.07
2019-04-05T03:52:55.233Z,89.87
2019-04-05T03:55:26.659Z,91.13
2019-04-05T03:57:57.988Z,94.27
2019-04-05T04:00:29.350Z,97.13
2019-04-05T04:03:00.799Z,256.63
2019-04-05T04:05:32.219Z,176.07
2019-04-05T04:08:03.712Z,102.67
2019-04-05T04:10:35.009Z,81.35
2019-04-05T04:13:06.401Z,79.20
2019-04-05T04:15:37.791Z,77.55
2019-04-05T04:18:09.310Z,69.70
2019-04-05T04:20:49.255Z,71.50
2019-04-05T04:23:23.778Z,75.35
2019-04-05T04:25:55.204Z,86.45
2019-04-05T04:28:26.863Z,440.23
2019-04-05T04:30:58.201Z,380.70
2019-04-05T04:33:29.479Z,345.15
2019-04-05T04:36:01.499Z,292.70
2019-04-05T04:38:32.824Z,297.65
2019-04-05T04:41:04.117Z,188.05
2019-04-05T04:43:35.449Z,165.18
2019-04-05T04:46:07.511Z,149.60
2019-04-05T04:48:40.142Z,150.18
2019-04-05T04:51:11.439Z,127.85
2019-04-05T04:53:42.876Z,125.15
2019-04-05T04:56:14.264Z,124.62
2019-04-05T04:58:46.382Z,122.20
2019-04-05T05:01:17.845Z,105.10
2019-04-05T05:03:49.220Z,105.70
2019-04-05T05:06:20.657Z,107.05
2019-04-05T05:08:52.155Z,106.30
2019-04-05T05:11:23.398Z,102.70
2019-04-05T05:13:54.790Z,106.35
2019-04-05T05:16:26.012Z,106.32
2019-04-05T05:18:57.326Z,105.22
2019-04-05T05:21:28.563Z,105.85
2019-04-05T05:23:59.984Z,102.22
2019-04-05T05:26:31.294Z,103.65
2019-04-05T05:29:02.666Z,111.55
2019-04-05T05:31:33.965Z,110.05
2019-04-05T05:34:06.321Z,102.72
2019-04-05T05:36:37.676Z,98.67
2019-04-05T05:39:09.108Z,103.00
2019-04-05T05:41:40.504Z,97.12
2019-04-05T05:44:11.805Z,98.87
2019-04-05T05:46:43.107Z,102.58
2019-04-05T05:49:14.463Z,108.70
2019-04-05T05:51:47.124Z,104.65
2019-04-05T05:54:18.366Z,106.32
2019-04-05T05:56:49.834Z,118.40
2019-04-05T05:59:21.130Z,107.83
2019-04-05T06:01:52.553Z,109.00
2019-04-05T06:04:23.920Z,112.12
2019-04-05T06:06:55.288Z,110.75
2019-04-05T06:09:27.269Z,109.72
2019-04-05T06:11:58.687Z,111.60
2019-04-05T06:14:30.152Z,108.03
2019-04-05T06:17:02.828Z,109.20
2019-04-05T06:19:35.167Z,120.50
2019-04-05T06:22:06.538Z,113.95
2019-04-05T06:24:37.847Z,112.32
2019-04-05T06:27:09.214Z,109.67
2019-04-05T06:29:40.504Z,118.60
2019-04-05T06:32:11.978Z,103.58
2019-04-05T06:34:44.935Z,106.12
2019-04-05T06:37:18.055Z,103.32
2019-04-05T06:39:49.528Z,87.53
2019-04-05T06:42:20.899Z,81.37
2019-04-05T06:44:52.359Z,89.05
2019-04-05T06:47:23.633Z,60.85
2019-04-05T06:49:54.923Z,66.40
2019-04-05T06:52:26.213Z,79.10
2019-04-05T06:54:57.614Z,86.28
2019-04-05T06:57:29.353Z,82.72
2019-04-05T07:00:00.752Z,84.45
2019-04-05T07:02:33.679Z,78.67
2019-04-05T07:05:06.856Z,81.00
2019-04-05T07:07:38.270Z,73.25
2019-04-05T07:10:09.628Z,82.65
2019-04-05T07:12:40.956Z,82.65
2019-04-05T07:15:12.239Z,85.92
2019-04-05T07:17:43.698Z,72.47
2019-04-05T07:20:15.741Z,70.40
2019-04-05T07:22:47.087Z,70.30
2019-04-05T07:25:19.334Z,67.08
2019-04-05T07:27:50.616Z,59.70
2019-04-05T07:30:22.051Z,66.62
2019-04-05T07:32:53.358Z,59.00
2019-04-05T07:35:33.228Z,63.20
2019-04-05T07:37:57.750Z,62.62
2019-04-05T07:40:29.156Z,43.05
2019-04-05T07:43:00.504Z,31.90
2019-04-05T07:45:32.930Z,28.83
2019-04-05T07:48:05.201Z,34.15
2019-04-05T07:50:36.819Z,35.25
2019-04-05T07:53:08.167Z,25.90
2019-04-05T07:55:39.520Z,31.57
2019-04-05T07:58:10.877Z,30.90
2019-04-05T08:00:46.283Z,26.93
2019-04-05T08:03:18.347Z,28.10
2019-04-05T08:05:50.024Z,25.95
2019-04-05T08:08:41.330Z,24.63
2019-04-05T08:11:12.741Z,22.82
2019-04-05T08:13:44.289Z,23.65
2019-04-05T08:16:15.543Z,25.30
2019-04-05T08:18:57.122Z,25.72
2019-04-05T08:21:19.956Z,23.22
2019-04-05T08:23:51.237Z,25.35
2019-04-05T08:26:22.767Z,22.17
2019-04-05T08:28:54.051Z,23.02
2019-04-05T08:31:25.315Z,20.43
2019-04-05T08:33:58.275Z,23.55
2019-04-05T08:36:32.594Z,17.87
2019-04-05T08:39:02.674Z,21.10
2019-04-05T08:41:34.645Z,20.60
2019-04-05T08:44:06.018Z,20.65
2019-04-05T08:46:37.291Z,19.30
2019-04-05T08:49:10.946Z,24.72
2019-04-05T08:51:41.694Z,20.27
2019-04-05T08:54:12.961Z,18.65
2019-04-05T08:56:44.309Z,18.27
2019-04-05T09:01:47.082Z,21.37
2019-04-05T09:04:18.457Z,20.20
2019-04-05T09:06:49.776Z,20.62
2019-04-05T09:09:20.994Z,20.27
2019-04-05T09:11:53.192Z,20.50
2019-04-05T09:14:24.618Z,21.23
2019-04-05T09:16:55.866Z,19.90
2019-04-05T09:19:27.284Z,18.85
2019-04-05T09:21:59.831Z,12.03
2019-04-05T09:24:31.115Z,23.75
2019-04-05T09:27:02.542Z,22.02
2019-04-05T09:29:33.762Z,24.50
2019-04-05T09:32:05.197Z,23.42
2019-04-05T09:34:36.589Z,23.12
2019-04-05T09:37:08.426Z,21.33
2019-04-05T09:39:40.715Z,22.15
2019-04-05T09:42:13.188Z,24.23
2019-04-05T09:44:44.501Z,21.23
2019-04-05T09:47:16.009Z,22.58
2019-04-05T09:49:47.283Z,23.60
2019-04-05T09:52:18.616Z,23.55
2019-04-05T09:54:50.752Z,23.60
2019-04-05T09:57:22.081Z,20.92
2019-04-05T09:59:53.467Z,22.10
2019-04-05T10:02:24.825Z,23.62
2019-04-05T10:04:56.097Z,19.55
2019-04-05T10:07:27.435Z,23.40
2019-04-05T10:09:58.738Z,14.15
2019-04-05T10:12:30.199Z,20.08
2019-04-05T10:15:01.476Z,21.60
2019-04-05T10:17:33.912Z,18.75
2019-04-05T10:20:06.929Z,20.43
2019-04-05T10:22:38.239Z,23.80
2019-04-05T10:25:09.519Z,11.68
2019-04-05T10:27:40.951Z,21.00
2019-04-05T10:30:12.182Z,20.95
2019-04-05T10:32:45.961Z,22.42
2019-04-05T10:35:16.485Z,21.10
2019-04-05T10:37:47.734Z,18.27
2019-04-05T10:40:19.130Z,22.45
2019-04-05T10:42:50.538Z,20.77
2019-04-05T10:45:21.849Z,23.42
2019-04-05T10:47:54.202Z,23.27
2019-04-05T10:50:25.416Z,21.45
2019-04-05T10:52:56.750Z,23.85
2019-04-05T10:55:28.038Z,24.18
2019-04-05T10:57:59.291Z,26.55
2019-04-05T11:00:30.558Z,23.65
2019-04-05T11:03:01.906Z,24.60
2019-04-05T11:05:33.161Z,25.27
2019-04-05T11:08:04.559Z,25.60
2019-04-05T11:10:35.894Z,23.50
2019-04-05T11:13:07.193Z,22.02
2019-04-05T11:15:38.445Z,23.22
2019-04-05T11:18:09.792Z,23.25
2019-04-05T11:20:40.953Z,21.62
2019-04-05T11:23:13.242Z,23.12
2019-04-05T11:25:52.977Z,23.32
2019-04-05T11:28:25.757Z,22.95
2019-04-05T11:30:56.966Z,21.37
2019-04-05T11:33:28.306Z,13.43
2019-04-05T11:35:59.584Z,20.08
2019-04-05T11:38:30.975Z,27.07
2019-04-05T11:41:02.273Z,22.48
2019-04-05T11:43:34.103Z,21.20
2019-04-05T11:46:05.296Z,23.70
2019-04-05T11:48:37.762Z,23.10
2019-04-05T11:51:09.072Z,20.82
2019-04-05T11:53:40.361Z,25.60
2019-04-05T11:56:14.796Z,27.90
2019-04-05T11:58:48.655Z,28.12
2019-04-05T12:01:37.347Z,39.20
2019-04-05T12:04:08.702Z,72.72
2019-04-05T12:06:40.047Z,34.85
2019-04-05T12:09:11.400Z,34.40
2019-04-05T12:11:42.742Z,29.60
2019-04-05T12:14:14.093Z,30.12
2019-04-05T12:16:45.372Z,31.00
2019-04-05T12:19:16.718Z,31.73
2019-04-05T12:21:48.033Z,30.37
2019-04-05T12:24:21.958Z,29.27
2019-04-05T12:26:53.265Z,29.57
2019-04-05T12:29:24.536Z,30.05
2019-04-05T12:31:56.931Z,30.85
2019-04-05T12:34:28.691Z,30.80
2019-04-05T12:37:00.431Z,30.40
2019-04-05T12:39:31.797Z,27.13
2019-04-05T12:42:03.142Z,26.25
2019-04-05T12:44:34.420Z,31.37
2019-04-05T12:47:05.854Z,31.68
2019-04-05T12:49:37.181Z,28.30
2019-04-05T12:52:21.588Z,31.12
2019-04-05T12:54:41.783Z,29.12
2019-04-05T12:57:13.288Z,33.10
2019-04-05T12:59:44.573Z,35.23
2019-04-05T13:02:20.599Z,36.45
2019-04-05T13:04:50.132Z,39.73
2019-04-05T13:07:22.790Z,37.98
2019-04-05T13:09:56.591Z,44.15
2019-04-05T13:12:27.932Z,39.67
2019-04-05T13:15:11.213Z,34.15
2019-04-05T13:17:32.373Z,38.20
2019-04-05T13:20:05.020Z,33.67
2019-04-05T13:22:36.348Z,59.33
2019-04-05T13:25:10.843Z,45.98
2019-04-05T13:27:42.278Z,50.67
2019-04-05T13:30:13.993Z,36.70
2019-04-05T13:32:46.468Z,44.18
2019-04-05T13:35:17.701Z,35.28
2019-04-05T13:37:49.120Z,37.50
2019-04-05T13:40:20.369Z,37.75
2019-04-05T13:42:51.654Z,43.28
2019-04-05T13:45:22.946Z,44.38
2019-04-05T13:47:54.372Z,43.40
2019-04-05T13:50:25.728Z,47.88
2019-04-05T13:52:57.029Z,49.27
2019-04-05T13:55:28.382Z,44.23
2019-04-05T13:58:00.968Z,45.03
2019-04-05T14:00:32.666Z,42.90
2019-04-05T14:03:04.458Z,49.27
2019-04-05T14:05:36.331Z,44.45
2019-04-05T14:08:11.047Z,40.55
2019-04-05T14:10:41.901Z,44.60
2019-04-05T14:13:13.584Z,44.95
2019-04-05T14:15:44.852Z,44.33
2019-04-05T14:18:16.177Z,44.77
2019-04-05T14:20:49.583Z,41.92
2019-04-05T14:23:24.089Z,43.23
2019-04-05T14:26:00.340Z,44.80
2019-04-05T14:28:34.011Z,43.75
2019-04-05T14:31:05.425Z,44.85
2019-04-05T14:33:36.879Z,43.70
2019-04-05T14:36:08.265Z,39.85
2019-04-05T14:38:39.693Z,45.73
2019-04-05T14:41:11.009Z,42.20
2019-04-05T14:43:44.540Z,37.00
2019-04-05T14:46:17.600Z,38.10
2019-04-05T14:48:49.021Z,38.23
2019-04-05T14:51:20.322Z,40.12
2019-04-05T14:53:51.665Z,41.75
2019-04-05T14:56:22.986Z,42.30
2019-04-05T14:58:55.340Z,41.98
2019-04-05T15:01:26.577Z,40.63
2019-04-05T15:03:57.882Z,41.92
2019-04-05T15:06:29.307Z,41.88
2019-04-05T15:09:02.189Z,38.00
2019-04-05T15:11:34.896Z,38.63
2019-04-05T15:14:06.127Z,41.25
2019-04-05T15:16:39.733Z,37.67
2019-04-05T15:19:12.437Z,36.00
2019-04-05T15:21:44.982Z,37.45
2019-04-05T15:24:17.182Z,35.15
2019-04-05T15:26:51.510Z,36.25
2019-04-05T15:29:25.861Z,38.33
2019-04-05T15:31:56.383Z,39.67
2019-04-05T15:34:29.027Z,38.75
2019-04-05T15:37:01.562Z,43.45
2019-04-05T15:39:33.794Z,41.15
2019-04-05T15:42:06.721Z,38.80
2019-04-05T15:44:38.105Z,38.75
2019-04-05T15:47:09.541Z,44.33
2019-04-05T15:49:41.228Z,44.53
2019-04-05T15:52:18.674Z,40.90
2019-04-05T15:54:45.522Z,47.45
2019-04-05T15:57:16.960Z,48.65
2019-04-05T15:59:48.328Z,45.50
2019-04-05T16:02:19.734Z,51.02
2019-04-05T16:04:52.593Z,44.88
2019-04-05T16:07:23.952Z,44.10
2019-04-05T16:09:55.257Z,44.53
2019-04-05T16:12:26.462Z,44.55
2019-04-05T16:14:57.841Z,44.65
2019-04-05T16:17:32.913Z,44.33
2019-04-05T16:20:08.986Z,49.77
2019-04-05T16:22:40.403Z,46.00
2019-04-05T16:25:11.656Z,48.60
2019-04-05T16:27:43.003Z,49.18
2019-04-05T16:30:15.362Z,52.03
2019-04-05T16:32:46.655Z,52.38
2019-04-05T16:35:18.614Z,53.33
2019-04-05T16:37:49.754Z,50.23
2019-04-05T16:40:21.990Z,53.63
2019-04-05T16:43:02.393Z,57.90
2019-04-05T16:45:28.406Z,52.10
2019-04-05T16:47:59.639Z,56.13
2019-04-05T16:50:32.049Z,61.10
2019-04-05T16:53:03.838Z,61.13
2019-04-05T16:55:36.755Z,56.35
2019-04-05T16:58:08.850Z,53.02
2019-04-05T17:00:41.173Z,56.45
2019-04-05T17:03:12.489Z,60.70
2019-04-05T17:05:43.953Z,71.70
2019-04-05T17:08:15.273Z,74.37
2019-04-05T17:10:46.748Z,81.87
2019-04-05T17:13:18.073Z,86.92
2019-04-05T17:15:49.425Z,83.47
2019-04-05T17:18:20.734Z,89.75
2019-04-05T17:20:52.092Z,118.13
2019-04-05T17:23:23.553Z,97.95
2019-04-05T17:25:54.847Z,100.07
2019-04-05T17:28:28.403Z,95.22
2019-04-05T17:31:00.798Z,93.62
2019-04-05T17:33:35.505Z,95.72
2019-04-05T17:36:06.889Z,96.40
2019-04-05T17:38:39.323Z,98.10
2019-04-05T17:41:12.062Z,92.72
2019-04-05T17:43:45.037Z,89.52
2019-04-05T17:46:16.416Z,93.50
2019-04-05T17:48:51.736Z,93.82
2019-04-05T17:51:23.513Z,90.87
2019-04-05T17:53:56.193Z,83.25
2019-04-05T17:56:27.518Z,74.15
2019-04-05T17:58:58.797Z,76.40
2019-04-05T18:01:30.195Z,77.30
2019-04-05T18:04:01.522Z,71.97
2019-04-05T18:06:32.934Z,75.60
2019-04-05T18:09:05.544Z,84.75
2019-04-05T18:11:37.450Z,80.83
2019-04-05T18:14:08.834Z,69.65
2019-04-05T18:16:40.192Z,101.60
2019-04-05T18:19:11.608Z,122.25
2019-04-05T18:21:44.065Z,136.32
2019-04-05T18:24:15.381Z,145.43
2019-04-05T18:26:46.684Z,128.62
2019-04-05T18:29:20.633Z,138.43
2019-04-05T18:31:54.955Z,132.40
2019-04-05T18:34:28.200Z,135.20
2019-04-05T18:37:00.920Z,144.25
2019-04-05T18:39:32.311Z,180.60
2019-04-05T18:42:05.227Z,178.23
2019-04-05T18:44:36.541Z,216.23
2019-04-05T18:47:08.975Z,209.00
2019-04-05T18:49:42.120Z,226.70
2019-04-05T18:52:13.828Z,224.00
2019-04-05T18:54:45.264Z,231.53
2019-04-05T18:57:16.587Z,212.00
2019-04-05T18:59:48.001Z,229.15
2019-04-05T19:02:19.415Z,229.38
2019-04-05T19:04:51.321Z,289.68
2019-04-05T19:07:23.929Z,152.78
2019-04-05T19:09:55.292Z,141.18
2019-04-05T19:12:26.690Z,132.82
2019-04-05T19:14:59.254Z,114.22
2019-04-05T19:17:31.037Z,112.52
2019-04-05T19:20:04.112Z,97.08
2019-04-05T19:22:35.940Z,88.82
2019-04-05T19:25:08.762Z,89.60
2019-04-05T19:27:40.116Z,83.82
2019-04-05T19:50:37.824Z,56.25
2019-04-05T19:53:11.034Z,56.88
2019-04-05T19:55:42.428Z,53.58
2019-04-05T19:58:13.679Z,49.83
2019-04-05T20:00:44.964Z,54.65
2019-04-05T20:03:16.371Z,55.85
2019-04-05T20:05:47.785Z,53.87
2019-04-05T20:08:19.446Z,54.27
2019-04-05T20:10:51.346Z,52.38
2019-04-05T20:13:22.798Z,51.25
2019-04-05T20:15:54.492Z,48.60
2019-04-05T20:18:26.089Z,49.60
2019-04-05T20:20:59.084Z,51.18
2019-04-05T20:23:30.716Z,58.28
2019-04-05T20:26:02.038Z,55.55
2019-04-05T20:28:33.458Z,55.83
2019-04-05T20:31:04.981Z,66.22
2019-04-05T20:33:36.561Z,76.33
2019-04-05T20:36:09.069Z,93.30
2019-04-05T20:38:40.402Z,89.03
2019-04-05T20:41:11.730Z,85.67
2019-04-05T20:43:45.291Z,96.08
2019-04-05T20:46:17.015Z,99.75
2019-04-05T20:48:48.347Z,120.00
2019-04-05T20:51:20.651Z,103.05
2019-04-05T20:53:55.473Z,132.05
2019-04-05T20:56:27.441Z,173.45
2019-04-05T20:58:58.794Z,151.07
2019-04-05T21:01:30.255Z,132.55
2019-04-05T21:04:01.459Z,128.07
2019-04-05T21:06:32.928Z,88.65
2019-04-05T21:09:05.967Z,72.78
2019-04-05T21:11:38.058Z,76.33
2019-04-05T21:14:09.763Z,96.75
2019-04-05T21:16:41.115Z,102.85
2019-04-05T21:19:12.846Z,92.72
2019-04-05T21:21:44.269Z,104.07
2019-04-05T21:24:16.279Z,201.02
2019-04-05T21:26:47.712Z,237.38
2019-04-05T21:29:19.022Z,191.35
2019-04-05T21:31:50.485Z,97.02
2019-04-05T21:34:21.772Z,106.58
2019-04-05T21:36:53.078Z,117.28
2019-04-05T21:39:24.505Z,100.50
2019-04-05T21:41:57.836Z,105.53
2019-04-05T21:44:29.228Z,101.62
2019-04-05T21:47:00.455Z,99.85
2019-04-05T21:49:31.711Z,92.10
2019-04-05T21:52:03.258Z,97.45
2019-04-05T21:54:34.879Z,104.35
2019-04-05T21:57:06.391Z,102.63
2019-04-05T21:59:37.947Z,111.35
2019-04-05T22:02:09.503Z,111.52
2019-04-05T22:04:41.067Z,108.10
2019-04-05T22:07:12.771Z,102.05
2019-04-05T22:09:44.358Z,101.55
2019-04-05T22:12:16.165Z,97.92
2019-04-05T22:14:47.747Z,97.35
2019-04-05T22:17:19.286Z,99.85
2019-04-05T22:19:50.912Z,95.38
2019-04-05T22:22:22.494Z,95.67
2019-04-05T22:24:59.243Z,128.72
2019-04-05T22:27:27.267Z,177.25
2019-04-05T22:29:58.835Z,148.30
2019-04-05T22:32:30.443Z,185.28
2019-04-05T22:35:02.168Z,198.38
2019-04-05T22:37:33.748Z,128.65
2019-04-05T22:40:06.872Z,107.15
2019-04-05T22:42:38.450Z,100.90
2019-04-05T22:45:10.180Z,105.15
2019-04-05T22:47:41.693Z,183.40
2019-04-05T22:50:14.149Z,202.40
2019-04-05T22:52:46.954Z,224.65
2019-04-05T22:55:18.607Z,226.98
2019-04-05T22:57:50.148Z,219.07
2019-04-05T23:00:21.875Z,207.37
2019-04-05T23:02:53.426Z,201.40
2019-04-05T23:05:25.039Z,203.03
2019-04-05T23:07:56.667Z,205.20
2019-04-05T23:10:28.186Z,215.13
2019-04-05T23:12:59.732Z,181.90
2019-04-05T23:15:31.311Z,179.45
2019-04-05T23:18:02.940Z,164.87
2019-04-05T23:20:34.608Z,125.63
2019-04-05T23:23:06.176Z,116.40
2019-04-05T23:25:37.832Z,107.67
2019-04-05T23:28:09.375Z,90.03
2019-04-05T23:30:41.038Z,76.23
2019-04-05T23:33:12.620Z,70.50
2019-04-05T23:35:44.205Z,71.43
2019-04-05T23:38:15.818Z,68.20
2019-04-05T23:40:47.379Z,63.30
2019-04-05T23:43:18.950Z,65.43
2019-04-05T23:45:50.589Z,67.00
2019-04-05T23:48:22.157Z,67.97
2019-04-05T23:50:53.737Z,76.65
2019-04-05T23:53:25.237Z,100.22
2019-04-05T23:55:57.868Z,106.00
2019-04-05T23:58:29.412Z,90.30
